Bandon, OR

7:19 PM PST on December 27, 2014 (GMT -0800)
North Bend | Change Station
CLOSE
Current Station
Airport
Location: North Bend,
Elevation: 16 ft
Nearby Weather Stations

Elev 16 ft 43.42 °N, 124.25 °W | Updated 4 minutes ago

Overcast
Overcast
48 °F
Feels Like 48 °F
N
6
Wind Variable Wind from SSW

Today
High -- | Low -- °F
--% Chance of Precip.
Yesterday
High -- | Low -- °F
Precip. -- in
7:48 AM 4:49 PM
Waxing Crescent, 43% visible
Pressure 30.33 in
Visibility 2.5 miles
Clouds Mostly Cloudy 600 ft
Overcast 1100 ft
Dew Point 48 °F
Humidity 100%
Rainfall 0.30 in
Snow Depth Not available.
UV 0 out of 12
Pollen 1.80 out of 12
Air Quality Not available.
Flu Activity Not available.
METAR KOTH 280315Z 21005KT 2 1/2SM BKN006 OVC011 09/09 A3033 RMK AO1 P0005

More Conditions Fewer Conditions

Pressure 30.33 in
Visibility 2.5 miles
Clouds Mostly Cloudy 600 ft
Overcast 1100 ft
Dew Point 48 °F
Humidity 100%
Rainfall 0.30 in
Snow Depth Not available.
UV 0 out of 12
Pollen 1.80 out of 12
Air Quality Not available.
Flu Activity Not available.
METAR KOTH 280315Z 21005KT 2 1/2SM BKN006 OVC011 09/09 A3033 RMK AO1 P0005

More Conditions Fewer Conditions

10-Day Weather Forecast

Almanac

Astronomy

Dec. 27, 2014 Rise Set
Actual Time
Civil Twilight
Nautical Twilight
Astronomical Twilight
Moon
Length of Visible Light
Length of Day
Tomorrow will be .
, % of the Moon is Illuminated

Today's Extremes

State Highs State Lows

Community

WunderPhotos

Upload Photos

1,781,171 photos uploaded!

WunderBlogs® & News

Nearby

Air Quality

  Air Quality AQ Index Pollutant
Not available.

Snow Depth

Station Depth Elevation

Earthquake Activity

City Distance Mag. Time & Date
Minimum magnitude displayed is 2.5.

Coastal Water Temperatures

Place Temperature

Nearby Weather Stations